Terminal Aerodrome Forecast
Issued by NWS Newport/Morehead City, NC

Home | Current Version | Previous Version | Text Only | Print | Product List | Glossary On
Versions: 1 2 3 4 5 6 7 8 9 10 11 12
399
FTUS42 KMHX 251720
TAFEWN
TAF
KEWN 251720Z 2518/2618 20011G20KT P6SM SCT150
     FM252000 20013G22KT P6SM VCTS FEW030CB BKN200
     FM260200 28011G19KT P6SM SCT250=

USA.gov is the U.S. government's official web portal to all federal, state and local government web resources and services.